Time,TemperatureF,DewpointF,PressureIn,WindDirection,WindDirectionDegrees,WindSpeedMPH,WindSpeedGustMPH,Humidity,HourlyPrecipIn,Conditions,Clouds,dailyrainin,SoftwareType,DateUTC
2013-09-24 00:00:00,54.9,43.7,30.04,NNW,340,0.0,0.0,66,0.00,CLR,,0.00,WeatherDisplay:10.37,2013-09-24 04:00:00,
2013-09-24 00:15:00,54.5,43.4,30.04,NE,56,0.0,0.0,66,0.00,CLR,,0.00,WeatherDisplay:10.37,2013-09-24 04:15:00,
2013-09-24 00:30:00,53.6,42.9,30.04,NE,49,0.0,0.0,67,0.00,CLR,,0.00,WeatherDisplay:10.37,2013-09-24 04:30:00,
2013-09-24 00:45:00,52.7,42.8,30.04,NE,45,0.0,0.0,69,0.00,CLR,,0.00,WeatherDisplay:10.37,2013-09-24 04:45:00,
2013-09-24 01:00:00,51.6,41.8,30.04,NE,45,0.0,0.0,69,0.00,CLR,,0.00,WeatherDisplay:10.37,2013-09-24 05:00:00,
2013-09-24 01:15:00,50.7,41.3,30.04,NE,45,0.0,0.0,70,0.00,CLR,,0.00,WeatherDisplay:10.37,2013-09-24 05:15:00,
2013-09-24 01:30:00,50.5,41.8,30.04,NE,45,0.0,0.0,72,0.00,CLR,,0.00,WeatherDisplay:10.37,2013-09-24 05:30:00,
2013-09-24 01:45:00,49.6,41.7,30.07,NE,45,0.0,0.0,74,0.00,CLR,,0.00,WeatherDisplay:10.37,2013-09-24 05:45:00,
2013-09-24 02:00:00,49.3,41.7,30.07,NE,45,0.0,0.0,75,0.00,CLR,,0.00,WeatherDisplay:10.37,2013-09-24 06:00:00,
2013-09-24 02:15:00,49.1,41.9,30.07,NE,45,0.0,0.0,76,0.00,CLR,,0.00,WeatherDisplay:10.37,2013-09-24 06:15:00,
2013-09-24 02:30:00,49.1,42.5,30.07,NE,45,0.0,0.0,78,0.00,CLR,,0.00,WeatherDisplay:10.37,2013-09-24 06:30:00,
2013-09-24 02:45:00,49.1,42.9,30.07,NE,45,0.0,0.0,79,0.00,CLR,,0.00,WeatherDisplay:10.37,2013-09-24 06:45:00,
2013-09-24 03:00:00,49.1,42.5,30.04,NE,45,0.0,0.0,78,0.00,CLR,,0.00,WeatherDisplay:10.37,2013-09-24 07:00:00,
2013-09-24 03:15:00,49.3,42.4,30.07,NE,45,0.0,0.0,77,0.00,CLR,,0.00,WeatherDisplay:10.37,2013-09-24 07:15:00,
2013-09-24 03:30:00,48.9,42.7,30.07,NE,45,0.0,0.0,79,0.00,CLR,,0.00,WeatherDisplay:10.37,2013-09-24 07:30:00,
2013-09-24 03:45:00,48.7,43.2,30.04,NE,45,0.0,0.0,81,0.00,CLR,,0.00,WeatherDisplay:10.37,2013-09-24 07:45:00,
2013-09-24 04:00:00,48.7,43.2,30.07,NNW,340,0.0,0.0,81,0.00,CLR,,0.00,WeatherDisplay:10.37,2013-09-24 08:00:00,
2013-09-24 04:15:00,49.1,43.2,30.07,NNW,340,0.0,0.0,80,0.00,CLR,,0.00,WeatherDisplay:10.37,2013-09-24 08:15:00,
2013-09-24 04:30:00,49.6,43.4,30.07,North,350,0.0,0.0,79,0.00,CLR,,0.00,WeatherDisplay:10.37,2013-09-24 08:30:00,
2013-09-24 04:45:00,49.3,43.0,30.04,North,350,0.0,0.0,79,0.00,CLR,,0.00,WeatherDisplay:10.37,2013-09-24 08:45:00,
2013-09-24 05:00:00,50.0,43.1,30.04,NNW,337,0.0,2.0,77,0.00,CLR,,0.00,WeatherDisplay:10.37,2013-09-24 09:00:00,
2013-09-24 05:15:00,50.4,43.1,30.04,East,91,0.0,0.0,76,0.00,CLR,,0.00,WeatherDisplay:10.37,2013-09-24 09:15:00,
2013-09-24 05:30:00,50.5,42.9,30.07,North,355,0.0,2.0,75,0.00,CLR,,0.00,WeatherDisplay:10.37,2013-09-24 09:30:00,
2013-09-24 05:45:00,50.4,42.7,30.07,NNW,333,1.0,2.0,75,0.00,CLR,,0.00,WeatherDisplay:10.37,2013-09-24 09:45:00,
2013-09-24 06:00:00,50.5,42.6,30.07,North,350,0.0,2.0,74,0.00,CLR,,0.00,WeatherDisplay:10.37,2013-09-24 10:00:00,
2013-09-24 06:15:00,50.7,42.7,30.07,NW,326,1.0,3.0,74,0.00,CLR,,0.00,WeatherDisplay:10.37,2013-09-24 10:15:00,
2013-09-24 06:30:00,50.5,42.6,30.07,NNW,332,2.0,3.0,74,0.00,CLR,,0.00,WeatherDisplay:10.37,2013-09-24 10:30:00,
2013-09-24 06:45:00,50.4,42.4,30.07,NNW,335,1.0,0.0,74,0.00,CLR,,0.00,WeatherDisplay:10.37,2013-09-24 10:45:00,
2013-09-24 07:00:00,50.5,42.6,30.07,NNW,347,1.0,3.0,74,0.00,CLR,,0.00,WeatherDisplay:10.37,2013-09-24 11:00:00,
2013-09-24 07:15:00,50.7,42.7,30.07,NNW,342,2.0,5.0,74,0.00,CLR,,0.00,WeatherDisplay:10.37,2013-09-24 11:15:00,
2013-09-24 07:30:00,50.7,42.7,30.07,NNW,342,1.0,3.0,74,0.00,CLR,,0.00,WeatherDisplay:10.37,2013-09-24 11:30:00,
2013-09-24 07:45:00,50.9,43.3,30.07,North,350,1.0,3.0,75,0.00,CLR,,0.00,WeatherDisplay:10.37,2013-09-24 11:45:00,
2013-09-24 08:00:00,51.6,44.0,30.07,NNW,338,1.0,3.0,75,0.00,CLR,,0.00,WeatherDisplay:10.37,2013-09-24 12:00:00,
2013-09-24 08:15:00,52.2,43.4,30.07,NW,321,1.0,4.0,72,0.00,CLR,,0.00,WeatherDisplay:10.37,2013-09-24 12:15:00,
2013-09-24 08:30:00,52.5,43.0,30.07,NNW,334,3.0,6.0,70,0.00,CLR,,0.00,WeatherDisplay:10.37,2013-09-24 12:30:00,
2013-09-24 08:45:00,53.1,43.5,30.07,NNW,330,5.0,6.0,70,0.00,CLR,,0.00,WeatherDisplay:10.37,2013-09-24 12:45:00,
2013-09-24 09:00:00,53.6,43.3,30.07,NNW,336,5.0,6.0,68,0.00,CLR,,0.00,WeatherDisplay:10.37,2013-09-24 13:00:00,
2013-09-24 09:15:00,54.0,43.6,30.07,North,357,5.0,6.0,68,0.00,CLR,,0.00,WeatherDisplay:10.37,2013-09-24 13:15:00,
2013-09-24 09:30:00,54.9,44.1,30.07,NNW,347,5.0,6.0,67,0.00,CLR,,0.00,WeatherDisplay:10.37,2013-09-24 13:30:00,
2013-09-24 09:45:00,54.7,44.3,30.07,NW,323,3.0,7.0,68,0.00,CLR,,0.00,WeatherDisplay:10.37,2013-09-24 13:45:00,
2013-09-24 10:00:00,55.4,44.2,30.07,NW,325,2.0,5.0,66,0.00,CLR,,0.00,WeatherDisplay:10.37,2013-09-24 14:00:00,
2013-09-24 10:15:00,55.9,45.1,30.07,WNW,287,2.0,8.0,67,0.00,CLR,,0.00,WeatherDisplay:10.37,2013-09-24 14:15:00,
2013-09-24 10:30:00,56.8,45.6,30.07,NW,324,5.0,8.0,66,0.00,CLR,,0.00,WeatherDisplay:10.37,2013-09-24 14:30:00,
2013-09-24 10:45:00,57.2,45.5,30.07,WNW,298,3.0,5.0,65,0.00,CLR,,0.00,WeatherDisplay:10.37,2013-09-24 14:45:00,
2013-09-24 11:00:00,57.9,45.8,30.04,NW,322,2.0,5.0,64,0.00,CLR,,0.00,WeatherDisplay:10.37,2013-09-24 15:00:00,
2013-09-24 11:15:00,58.1,44.7,30.04,WNW,292,5.0,8.0,61,0.00,CLR,,0.00,WeatherDisplay:10.37,2013-09-24 15:15:00,
2013-09-24 11:30:00,58.6,44.8,30.04,West,263,8.0,14.0,60,0.00,CLR,,0.00,WeatherDisplay:10.37,2013-09-24 15:30:00,
2013-09-24 11:45:00,60.1,45.7,30.04,WNW,287,8.0,9.0,59,0.00,CLR,,0.00,WeatherDisplay:10.37,2013-09-24 15:45:00,
2013-09-24 12:00:00,61.3,45.5,30.04,WNW,284,6.0,10.0,56,0.00,CLR,,0.00,WeatherDisplay:10.37,2013-09-24 16:00:00,
2013-09-24 12:15:00,61.5,45.2,30.04,WNW,287,7.0,10.0,55,0.00,CLR,,0.00,WeatherDisplay:10.37,2013-09-24 16:15:00,
2013-09-24 12:30:00,61.9,45.5,30.04,WNW,297,10.0,13.0,55,0.00,CLR,,0.00,WeatherDisplay:10.37,2013-09-24 16:30:00,
2013-09-24 12:45:00,62.1,45.7,30.01,WNW,284,8.0,9.0,55,0.00,CLR,,0.00,WeatherDisplay:10.37,2013-09-24 16:45:00,
2013-09-24 13:00:00,63.0,46.0,30.01,West,274,7.0,10.0,54,0.00,CLR,,0.00,WeatherDisplay:10.37,2013-09-24 17:00:00,
2013-09-24 13:15:00,63.0,45.6,30.01,NW,318,7.0,10.0,53,0.00,CLR,,0.00,WeatherDisplay:10.37,2013-09-24 17:15:00,
2013-09-24 13:30:00,63.3,45.9,30.01,West,275,9.0,14.0,53,0.00,CLR,,0.00,WeatherDisplay:10.37,2013-09-24 17:30:00,
2013-09-24 13:45:00,64.2,46.7,29.99,WNW,282,10.0,12.0,53,0.00,CLR,,0.00,WeatherDisplay:10.37,2013-09-24 17:45:00,
2013-09-24 14:00:00,64.0,46.1,29.99,West,280,10.0,14.0,52,0.00,CLR,,0.00,WeatherDisplay:10.37,2013-09-24 18:00:00,
2013-09-24 14:15:00,64.2,46.7,29.99,West,280,13.0,14.0,53,0.00,CLR,,0.00,WeatherDisplay:10.37,2013-09-24 18:15:00,
2013-09-24 14:30:00,65.1,47.1,29.99,WNW,295,12.0,13.0,52,0.00,CLR,,0.00,WeatherDisplay:10.37,2013-09-24 18:30:00,
2013-09-24 14:45:00,65.5,46.9,29.99,NW,304,10.0,12.0,51,0.00,CLR,,0.00,WeatherDisplay:10.37,2013-09-24 18:45:00,
2013-09-24 15:00:00,66.0,45.8,29.95,WNW,293,7.0,10.0,48,0.00,CLR,,0.00,WeatherDisplay:10.37,2013-09-24 19:00:00,
2013-09-24 15:15:00,66.4,46.6,29.95,WNW,285,7.0,10.0,49,0.00,CLR,,0.00,WeatherDisplay:10.37,2013-09-24 19:15:00,
2013-09-24 15:30:00,67.1,46.7,29.95,WNW,286,8.0,10.0,48,0.00,CLR,,0.00,WeatherDisplay:10.37,2013-09-24 19:30:00,
2013-09-24 15:45:00,67.5,47.1,29.95,WNW,292,7.0,13.0,48,0.00,CLR,,0.00,WeatherDisplay:10.37,2013-09-24 19:45:00,
2013-09-24 16:00:00,67.5,47.1,29.95,WNW,297,7.0,9.0,48,0.00,CLR,,0.00,WeatherDisplay:10.37,2013-09-24 20:00:00,
2013-09-24 16:15:00,67.3,47.5,29.95,WSW,257,7.0,13.0,49,0.00,CLR,,0.00,WeatherDisplay:10.37,2013-09-24 20:15:00,
2013-09-24 16:30:00,66.9,47.1,29.93,WNW,295,7.0,7.0,49,0.00,CLR,,0.00,WeatherDisplay:10.37,2013-09-24 20:30:00,
2013-09-24 16:45:00,66.9,47.7,29.93,NNW,337,5.0,6.0,50,0.00,CLR,,0.00,WeatherDisplay:10.37,2013-09-24 20:45:00,
2013-09-24 17:00:00,67.1,48.4,29.93,WNW,291,3.0,5.0,51,0.00,CLR,,0.00,WeatherDisplay:10.37,2013-09-24 21:00:00,
2013-09-24 17:15:00,66.7,48.0,29.93,NW,322,3.0,5.0,51,0.00,CLR,,0.00,WeatherDisplay:10.37,2013-09-24 21:15:00,
2013-09-24 17:30:00,66.7,48.5,29.93,West,274,2.0,4.0,52,0.00,CLR,,0.00,WeatherDisplay:10.37,2013-09-24 21:30:00,
2013-09-24 17:45:00,66.0,48.4,29.93,West,276,2.0,4.0,53,0.00,CLR,,0.00,WeatherDisplay:10.37,2013-09-24 21:45:00,
2013-09-24 18:00:00,65.7,48.6,29.93,North,349,1.0,3.0,54,0.00,CLR,,0.00,WeatherDisplay:10.37,2013-09-24 22:00:00,
2013-09-24 18:15:00,64.9,46.4,29.93,NNW,331,2.0,3.0,51,0.00,CLR,,0.00,WeatherDisplay:10.37,2013-09-24 22:15:00,
2013-09-24 18:45:00,63.3,46.9,29.93,West,269,0.0,3.0,55,0.00,CLR,,0.00,WeatherDisplay:10.37,2013-09-24 22:45:00,
2013-09-24 19:00:00,62.8,46.4,29.93,WNW,301,1.0,3.0,55,0.00,CLR,,0.00,WeatherDisplay:10.37,2013-09-24 23:00:00,
2013-09-24 19:15:00,62.4,46.5,29.93,NW,310,0.0,0.0,56,0.00,CLR,,0.00,WeatherDisplay:10.37,2013-09-24 23:15:00,
2013-09-24 19:30:00,61.7,46.3,29.93,WSW,257,0.0,0.0,57,0.00,CLR,,0.00,WeatherDisplay:10.37,2013-09-24 23:30:00,
2013-09-24 19:45:00,61.2,46.7,29.93,WSW,254,0.0,0.0,59,0.00,CLR,,0.00,WeatherDisplay:10.37,2013-09-24 23:45:00,
2013-09-24 20:00:00,62.1,47.1,29.93,NNW,346,0.0,0.0,58,0.00,CLR,,0.00,WeatherDisplay:10.37,2013-09-25 00:00:00,
2013-09-24 20:15:00,62.1,46.6,29.93,WNW,294,0.0,0.0,57,0.00,CLR,,0.00,WeatherDisplay:10.37,2013-09-25 00:15:00,
2013-09-24 20:30:00,62.2,47.7,29.93,NNW,345,0.0,0.0,59,0.00,CLR,,0.00,WeatherDisplay:10.37,2013-09-25 00:30:00,
2013-09-24 20:45:00,62.1,47.6,29.93,WSW,250,0.0,0.0,59,0.00,CLR,,0.00,WeatherDisplay:10.37,2013-09-25 00:45:00,
2013-09-24 21:00:00,60.6,47.1,29.95,NW,316,0.0,0.0,61,0.00,CLR,,0.00,WeatherDisplay:10.37,2013-09-25 01:00:00,
2013-09-24 21:15:00,60.4,47.8,29.95,NW,309,0.0,0.0,63,0.00,CLR,,0.00,WeatherDisplay:10.37,2013-09-25 01:15:00,
2013-09-24 21:30:00,59.7,47.1,29.95,West,262,0.0,0.0,63,0.00,CLR,,0.00,WeatherDisplay:10.37,2013-09-25 01:30:00,
2013-09-24 21:45:00,59.0,46.8,29.95,SSW,200,0.0,0.0,64,0.00,CLR,,0.00,WeatherDisplay:10.37,2013-09-25 01:45:00,
2013-09-24 22:00:00,58.5,47.9,29.95,SSW,200,0.0,0.0,68,0.00,CLR,,0.00,WeatherDisplay:10.37,2013-09-25 02:00:00,
2013-09-24 22:15:00,58.5,48.7,29.95,SW,225,0.0,0.0,70,0.00,CLR,,0.00,WeatherDisplay:10.37,2013-09-25 02:15:00,
2013-09-24 22:30:00,58.1,49.1,29.95,SW,234,0.0,0.0,72,0.00,CLR,,0.00,WeatherDisplay:10.37,2013-09-25 02:30:00,
2013-09-24 22:45:00,57.7,49.1,29.93,WSW,247,0.0,0.0,73,0.00,CLR,,0.00,WeatherDisplay:10.37,2013-09-25 02:45:00,
2013-09-24 23:00:00,57.2,49.0,29.93,WSW,245,0.0,0.0,74,0.00,CLR,,0.00,WeatherDisplay:10.37,2013-09-25 03:00:00,
2013-09-24 23:15:00,56.7,50.2,29.93,WSW,245,0.0,0.0,79,0.00,CLR,,0.00,WeatherDisplay:10.37,2013-09-25 03:15:00,
2013-09-24 23:30:00,56.1,50.0,29.93,WSW,245,0.0,0.0,80,0.00,CLR,,0.00,WeatherDisplay:10.37,2013-09-25 03:30:00,
2013-09-24 23:45:00,55.6,49.5,29.93,WSW,245,0.0,0.0,80,0.00,CLR,,0.00,WeatherDisplay:10.37,2013-09-25 03:45:00,